sensor_id;sensor_type;location;lat;lon;timestamp;P1;durP1;ratioP1;P2;durP2;ratioP2
75542;SDS011;64129;53.508;10.476;2023-03-31T00:02:11;11.93;;;2.85;;
75542;SDS011;64129;53.508;10.476;2023-03-31T00:04:41;13.40;;;3.20;;
75542;SDS011;64129;53.508;10.476;2023-03-31T00:07:12;10.05;;;2.25;;
75542;SDS011;64129;53.508;10.476;2023-03-31T00:09:40;7.13;;;2.95;;
75542;SDS011;64129;53.508;10.476;2023-03-31T00:12:14;12.02;;;2.72;;
75542;SDS011;64129;53.508;10.476;2023-03-31T00:14:42;8.48;;;2.42;;
75542;SDS011;64129;53.508;10.476;2023-03-31T00:17:09;9.40;;;3.05;;
75542;SDS011;64129;53.508;10.476;2023-03-31T00:19:36;10.10;;;2.70;;
75542;SDS011;64129;53.508;10.476;2023-03-31T00:22:03;10.93;;;3.47;;
75542;SDS011;64129;53.508;10.476;2023-03-31T00:24:32;11.10;;;3.83;;
75542;SDS011;64129;53.508;10.476;2023-03-31T00:26:59;8.63;;;2.63;;
75542;SDS011;64129;53.508;10.476;2023-03-31T00:29:28;9.50;;;3.10;;
75542;SDS011;64129;53.508;10.476;2023-03-31T00:31:54;12.68;;;2.97;;
75542;SDS011;64129;53.508;10.476;2023-03-31T00:34:21;11.27;;;2.85;;
75542;SDS011;64129;53.508;10.476;2023-03-31T00:36:48;12.27;;;3.17;;
75542;SDS011;64129;53.508;10.476;2023-03-31T00:39:15;11.32;;;3.25;;
75542;SDS011;64129;53.508;10.476;2023-03-31T00:41:43;10.35;;;2.80;;
75542;SDS011;64129;53.508;10.476;2023-03-31T00:44:12;15.55;;;3.30;;
75542;SDS011;64129;53.508;10.476;2023-03-31T00:46:56;11.82;;;2.97;;
75542;SDS011;64129;53.508;10.476;2023-03-31T00:52:03;10.98;;;3.05;;
75542;SDS011;64129;53.508;10.476;2023-03-31T00:54:35;12.25;;;2.70;;
75542;SDS011;64129;53.508;10.476;2023-03-31T00:57:03;14.27;;;3.53;;
75542;SDS011;64129;53.508;10.476;2023-03-31T00:59:40;10.80;;;3.78;;
75542;SDS011;64129;53.508;10.476;2023-03-31T01:02:11;12.55;;;3.08;;
75542;SDS011;64129;53.508;10.476;2023-03-31T01:04:42;12.18;;;3.13;;
75542;SDS011;64129;53.508;10.476;2023-03-31T01:10:02;10.30;;;2.90;;
75542;SDS011;64129;53.508;10.476;2023-03-31T01:12:30;13.50;;;2.90;;
75542;SDS011;64129;53.508;10.476;2023-03-31T01:14:59;13.75;;;1.73;;
75542;SDS011;64129;53.508;10.476;2023-03-31T01:17:26;10.02;;;2.58;;
75542;SDS011;64129;53.508;10.476;2023-03-31T01:28:28;13.13;;;2.63;;
75542;SDS011;64129;53.508;10.476;2023-03-31T01:44:58;9.30;;;2.40;;
75542;SDS011;64129;53.508;10.476;2023-03-31T01:50:28;13.27;;;3.63;;
75542;SDS011;64129;53.508;10.476;2023-03-31T01:56:07;6.90;;;2.63;;
75542;SDS011;64129;53.508;10.476;2023-03-31T01:58:40;11.70;;;2.83;;
75542;SDS011;64129;53.508;10.476;2023-03-31T02:01:17;11.13;;;4.28;;
75542;SDS011;64129;53.508;10.476;2023-03-31T02:03:50;16.73;;;3.33;;
75542;SDS011;64129;53.508;10.476;2023-03-31T02:06:26;12.18;;;3.58;;
75542;SDS011;64129;53.508;10.476;2023-03-31T02:09:02;15.20;;;4.78;;
75542;SDS011;64129;53.508;10.476;2023-03-31T02:11:34;12.40;;;3.65;;
75542;SDS011;64129;53.508;10.476;2023-03-31T02:14:02;18.10;;;4.57;;
75542;SDS011;64129;53.508;10.476;2023-03-31T02:16:34;11.00;;;4.60;;
75542;SDS011;64129;53.508;10.476;2023-03-31T02:19:07;13.05;;;4.70;;
75542;SDS011;64129;53.508;10.476;2023-03-31T02:21:36;11.70;;;3.88;;
75542;SDS011;64129;53.508;10.476;2023-03-31T02:24:06;11.82;;;4.82;;
75542;SDS011;64129;53.508;10.476;2023-03-31T02:26:39;12.50;;;4.50;;
75542;SDS011;64129;53.508;10.476;2023-03-31T02:29:11;9.82;;;4.47;;
75542;SDS011;64129;53.508;10.476;2023-03-31T02:31:46;8.98;;;4.60;;
75542;SDS011;64129;53.508;10.476;2023-03-31T02:34:18;13.38;;;5.18;;
75542;SDS011;64129;53.508;10.476;2023-03-31T02:36:45;10.52;;;4.80;;
75542;SDS011;64129;53.508;10.476;2023-03-31T02:39:18;11.45;;;4.68;;
75542;SDS011;64129;53.508;10.476;2023-03-31T02:41:50;11.70;;;4.45;;
75542;SDS011;64129;53.508;10.476;2023-03-31T02:44:18;12.88;;;4.82;;
75542;SDS011;64129;53.508;10.476;2023-03-31T02:46:46;9.77;;;4.75;;
75542;SDS011;64129;53.508;10.476;2023-03-31T02:49:13;14.38;;;4.97;;
75542;SDS011;64129;53.508;10.476;2023-03-31T02:57:49;9.82;;;4.68;;
75542;SDS011;64129;53.508;10.476;2023-03-31T03:03:38;13.60;;;4.63;;
75542;SDS011;64129;53.508;10.476;2023-03-31T03:06:27;14.80;;;4.70;;
75542;SDS011;64129;53.508;10.476;2023-03-31T03:14:48;10.13;;;4.65;;
75542;SDS011;64129;53.508;10.476;2023-03-31T03:20:02;13.60;;;4.97;;
75542;SDS011;64129;53.508;10.476;2023-03-31T03:22:38;9.88;;;4.85;;
75542;SDS011;64129;53.508;10.476;2023-03-31T03:25:06;12.52;;;5.20;;
75542;SDS011;64129;53.508;10.476;2023-03-31T03:27:38;7.75;;;4.63;;
75542;SDS011;64129;53.508;10.476;2023-03-31T03:30:05;10.80;;;5.47;;
75542;SDS011;64129;53.508;10.476;2023-03-31T03:32:33;12.27;;;5.22;;
75542;SDS011;64129;53.508;10.476;2023-03-31T03:35:00;10.20;;;4.90;;
75542;SDS011;64129;53.508;10.476;2023-03-31T03:37:27;14.15;;;5.05;;
75542;SDS011;64129;53.508;10.476;2023-03-31T03:39:54;11.52;;;4.57;;
75542;SDS011;64129;53.508;10.476;2023-03-31T03:42:21;10.52;;;4.45;;
75542;SDS011;64129;53.508;10.476;2023-03-31T03:44:47;8.98;;;4.53;;
75542;SDS011;64129;53.508;10.476;2023-03-31T03:47:14;10.77;;;4.90;;
75542;SDS011;64129;53.508;10.476;2023-03-31T03:49:41;8.82;;;4.25;;
75542;SDS011;64129;53.508;10.476;2023-03-31T03:52:08;9.70;;;4.70;;
75542;SDS011;64129;53.508;10.476;2023-03-31T03:54:34;11.30;;;4.93;;
75542;SDS011;64129;53.508;10.476;2023-03-31T03:57:01;12.60;;;5.35;;
75542;SDS011;64129;53.508;10.476;2023-03-31T03:59:27;12.13;;;5.32;;
75542;SDS011;64129;53.508;10.476;2023-03-31T04:01:54;10.90;;;4.72;;
75542;SDS011;64129;53.508;10.476;2023-03-31T04:04:20;12.13;;;5.15;;
75542;SDS011;64129;53.508;10.476;2023-03-31T04:06:47;11.35;;;5.32;;
75542;SDS011;64129;53.508;10.476;2023-03-31T04:09:13;11.13;;;5.43;;
75542;SDS011;64129;53.508;10.476;2023-03-31T04:11:40;14.23;;;5.55;;
75542;SDS011;64129;53.508;10.476;2023-03-31T04:14:07;15.13;;;5.88;;
75542;SDS011;64129;53.508;10.476;2023-03-31T04:16:33;13.52;;;5.63;;
75542;SDS011;64129;53.508;10.476;2023-03-31T04:19:00;10.27;;;5.68;;
75542;SDS011;64129;53.508;10.476;2023-03-31T04:21:30;13.30;;;6.13;;
75542;SDS011;64129;53.508;10.476;2023-03-31T04:24:00;11.57;;;6.55;;
75542;SDS011;64129;53.508;10.476;2023-03-31T04:26:30;16.30;;;7.47;;
75542;SDS011;64129;53.508;10.476;2023-03-31T04:29:11;11.85;;;6.75;;
75542;SDS011;64129;53.508;10.476;2023-03-31T04:31:39;18.48;;;7.70;;
75542;SDS011;64129;53.508;10.476;2023-03-31T04:34:09;17.90;;;7.50;;
75542;SDS011;64129;53.508;10.476;2023-03-31T04:36:41;13.70;;;7.28;;
75542;SDS011;64129;53.508;10.476;2023-03-31T04:39:12;15.40;;;7.13;;
75542;SDS011;64129;53.508;10.476;2023-03-31T04:41:40;14.57;;;7.35;;
75542;SDS011;64129;53.508;10.476;2023-03-31T04:44:07;16.95;;;7.15;;
75542;SDS011;64129;53.508;10.476;2023-03-31T04:46:34;15.23;;;7.57;;
75542;SDS011;64129;53.508;10.476;2023-03-31T04:49:01;16.50;;;7.43;;
75542;SDS011;64129;53.508;10.476;2023-03-31T04:51:28;21.08;;;8.05;;
75542;SDS011;64129;53.508;10.476;2023-03-31T04:53:54;16.23;;;7.05;;
75542;SDS011;64129;53.508;10.476;2023-03-31T04:56:21;12.43;;;7.47;;
75542;SDS011;64129;53.508;10.476;2023-03-31T04:58:48;18.38;;;7.60;;
75542;SDS011;64129;53.508;10.476;2023-03-31T05:01:14;12.50;;;7.10;;
75542;SDS011;64129;53.508;10.476;2023-03-31T05:03:43;17.40;;;6.95;;
75542;SDS011;64129;53.508;10.476;2023-03-31T05:06:13;17.13;;;7.80;;
75542;SDS011;64129;53.508;10.476;2023-03-31T05:08:41;19.10;;;8.23;;
75542;SDS011;64129;53.508;10.476;2023-03-31T05:11:08;17.00;;;7.47;;
75542;SDS011;64129;53.508;10.476;2023-03-31T05:13:34;14.65;;;7.35;;
75542;SDS011;64129;53.508;10.476;2023-03-31T05:16:05;16.33;;;6.95;;
75542;SDS011;64129;53.508;10.476;2023-03-31T05:18:33;15.75;;;7.38;;
75542;SDS011;64129;53.508;10.476;2023-03-31T05:21:13;13.50;;;6.97;;
75542;SDS011;64129;53.508;10.476;2023-03-31T05:23:42;16.45;;;6.78;;
75542;SDS011;64129;53.508;10.476;2023-03-31T05:26:09;15.00;;;7.55;;
75542;SDS011;64129;53.508;10.476;2023-03-31T05:28:36;15.43;;;6.80;;
75542;SDS011;64129;53.508;10.476;2023-03-31T05:31:04;15.75;;;7.43;;
75542;SDS011;64129;53.508;10.476;2023-03-31T05:33:31;13.35;;;7.15;;
75542;SDS011;64129;53.508;10.476;2023-03-31T05:35:59;16.05;;;6.82;;
75542;SDS011;64129;53.508;10.476;2023-03-31T05:38:26;13.15;;;6.25;;
75542;SDS011;64129;53.508;10.476;2023-03-31T05:40:56;18.70;;;7.28;;
75542;SDS011;64129;53.508;10.476;2023-03-31T05:43:23;12.60;;;6.60;;
75542;SDS011;64129;53.508;10.476;2023-03-31T05:45:50;15.63;;;6.80;;
75542;SDS011;64129;53.508;10.476;2023-03-31T05:48:17;9.73;;;5.35;;
75542;SDS011;64129;53.508;10.476;2023-03-31T05:50:43;17.33;;;7.32;;
75542;SDS011;64129;53.508;10.476;2023-03-31T05:53:10;11.27;;;5.82;;
75542;SDS011;64129;53.508;10.476;2023-03-31T05:55:37;14.23;;;5.85;;
75542;SDS011;64129;53.508;10.476;2023-03-31T05:58:04;11.98;;;5.88;;
75542;SDS011;64129;53.508;10.476;2023-03-31T06:02:58;12.18;;;5.65;;
75542;SDS011;64129;53.508;10.476;2023-03-31T06:05:24;12.50;;;6.25;;
75542;SDS011;64129;53.508;10.476;2023-03-31T06:07:56;11.65;;;5.43;;
75542;SDS011;64129;53.508;10.476;2023-03-31T06:10:23;12.70;;;6.20;;
75542;SDS011;64129;53.508;10.476;2023-03-31T06:12:49;11.23;;;5.93;;
75542;SDS011;64129;53.508;10.476;2023-03-31T06:15:16;16.92;;;6.03;;
75542;SDS011;64129;53.508;10.476;2023-03-31T06:17:42;12.07;;;6.15;;
75542;SDS011;64129;53.508;10.476;2023-03-31T06:20:09;10.95;;;5.45;;
75542;SDS011;64129;53.508;10.476;2023-03-31T06:22:45;9.13;;;4.35;;
75542;SDS011;64129;53.508;10.476;2023-03-31T06:25:11;13.43;;;5.05;;
75542;SDS011;64129;53.508;10.476;2023-03-31T06:27:38;8.68;;;5.07;;
75542;SDS011;64129;53.508;10.476;2023-03-31T06:30:05;13.68;;;5.60;;
75542;SDS011;64129;53.508;10.476;2023-03-31T06:32:32;15.40;;;5.68;;
75542;SDS011;64129;53.508;10.476;2023-03-31T06:34:58;12.52;;;4.70;;
75542;SDS011;64129;53.508;10.476;2023-03-31T06:37:25;13.32;;;4.88;;
75542;SDS011;64129;53.508;10.476;2023-03-31T06:39:51;11.80;;;4.95;;
75542;SDS011;64129;53.508;10.476;2023-03-31T06:42:18;11.50;;;5.03;;
75542;SDS011;64129;53.508;10.476;2023-03-31T06:44:44;11.95;;;4.70;;
75542;SDS011;64129;53.508;10.476;2023-03-31T06:47:11;9.73;;;5.10;;
75542;SDS011;64129;53.508;10.476;2023-03-31T06:49:37;10.32;;;4.68;;
75542;SDS011;64129;53.508;10.476;2023-03-31T06:52:04;8.60;;;4.30;;
75542;SDS011;64129;53.508;10.476;2023-03-31T06:54:30;10.38;;;4.07;;
75542;SDS011;64129;53.508;10.476;2023-03-31T06:56:57;13.45;;;5.88;;
75542;SDS011;64129;53.508;10.476;2023-03-31T06:59:24;8.20;;;4.43;;
75542;SDS011;64129;53.508;10.476;2023-03-31T07:01:50;8.60;;;4.18;;
75542;SDS011;64129;53.508;10.476;2023-03-31T07:04:17;12.57;;;4.63;;
75542;SDS011;64129;53.508;10.476;2023-03-31T07:06:43;11.90;;;4.57;;
75542;SDS011;64129;53.508;10.476;2023-03-31T07:09:10;15.40;;;5.47;;
75542;SDS011;64129;53.508;10.476;2023-03-31T07:11:37;10.95;;;4.25;;
75542;SDS011;64129;53.508;10.476;2023-03-31T07:14:03;9.95;;;3.97;;
75542;SDS011;64129;53.508;10.476;2023-03-31T07:16:30;12.48;;;4.70;;
75542;SDS011;64129;53.508;10.476;2023-03-31T07:18:56;7.50;;;3.67;;
75542;SDS011;64129;53.508;10.476;2023-03-31T07:21:24;7.30;;;3.90;;
75542;SDS011;64129;53.508;10.476;2023-03-31T07:23:51;13.10;;;5.63;;
75542;SDS011;64129;53.508;10.476;2023-03-31T07:26:18;6.75;;;3.88;;
75542;SDS011;64129;53.508;10.476;2023-03-31T07:28:44;11.63;;;4.35;;
75542;SDS011;64129;53.508;10.476;2023-03-31T07:31:14;10.43;;;3.63;;
75542;SDS011;64129;53.508;10.476;2023-03-31T07:33:41;9.38;;;3.72;;
75542;SDS011;64129;53.508;10.476;2023-03-31T07:36:08;6.18;;;3.28;;
75542;SDS011;64129;53.508;10.476;2023-03-31T07:38:37;9.15;;;3.60;;
75542;SDS011;64129;53.508;10.476;2023-03-31T07:41:04;8.75;;;3.28;;
75542;SDS011;64129;53.508;10.476;2023-03-31T07:43:34;8.77;;;2.88;;
75542;SDS011;64129;53.508;10.476;2023-03-31T07:46:00;6.53;;;3.45;;
75542;SDS011;64129;53.508;10.476;2023-03-31T07:48:27;7.63;;;3.63;;
75542;SDS011;64129;53.508;10.476;2023-03-31T07:50:53;7.28;;;3.30;;
75542;SDS011;64129;53.508;10.476;2023-03-31T07:53:28;8.55;;;3.75;;
75542;SDS011;64129;53.508;10.476;2023-03-31T07:55:54;6.05;;;2.85;;
75542;SDS011;64129;53.508;10.476;2023-03-31T07:58:21;9.43;;;3.30;;
75542;SDS011;64129;53.508;10.476;2023-03-31T08:00:47;7.78;;;2.78;;
75542;SDS011;64129;53.508;10.476;2023-03-31T08:03:14;6.15;;;2.85;;
75542;SDS011;64129;53.508;10.476;2023-03-31T08:05:40;5.65;;;2.80;;
75542;SDS011;64129;53.508;10.476;2023-03-31T08:08:07;4.40;;;2.40;;
75542;SDS011;64129;53.508;10.476;2023-03-31T08:10:34;7.38;;;2.22;;
75542;SDS011;64129;53.508;10.476;2023-03-31T08:13:00;4.32;;;1.75;;
75542;SDS011;64129;53.508;10.476;2023-03-31T08:15:27;7.95;;;2.30;;
75542;SDS011;64129;53.508;10.476;2023-03-31T08:17:54;3.13;;;1.95;;
75542;SDS011;64129;53.508;10.476;2023-03-31T08:20:20;5.75;;;2.35;;
75542;SDS011;64129;53.508;10.476;2023-03-31T08:22:47;5.43;;;2.10;;
75542;SDS011;64129;53.508;10.476;2023-03-31T08:25:13;5.70;;;2.53;;
75542;SDS011;64129;53.508;10.476;2023-03-31T08:27:40;4.95;;;2.13;;
75542;SDS011;64129;53.508;10.476;2023-03-31T08:30:08;5.25;;;2.20;;
75542;SDS011;64129;53.508;10.476;2023-03-31T08:32:36;7.45;;;2.47;;
75542;SDS011;64129;53.508;10.476;2023-03-31T08:35:02;7.15;;;2.35;;
75542;SDS011;64129;53.508;10.476;2023-03-31T08:37:29;6.35;;;2.60;;
75542;SDS011;64129;53.508;10.476;2023-03-31T08:39:57;4.13;;;2.25;;
75542;SDS011;64129;53.508;10.476;2023-03-31T08:42:28;5.93;;;2.28;;
75542;SDS011;64129;53.508;10.476;2023-03-31T08:47:36;7.55;;;2.38;;
75542;SDS011;64129;53.508;10.476;2023-03-31T08:50:06;6.05;;;2.47;;
75542;SDS011;64129;53.508;10.476;2023-03-31T08:52:40;7.00;;;2.30;;
75542;SDS011;64129;53.508;10.476;2023-03-31T08:55:11;4.38;;;1.90;;
75542;SDS011;64129;53.508;10.476;2023-03-31T08:57:51;5.03;;;2.10;;
75542;SDS011;64129;53.508;10.476;2023-03-31T09:00:23;7.55;;;2.65;;
75542;SDS011;64129;53.508;10.476;2023-03-31T09:03:01;4.50;;;2.42;;
75542;SDS011;64129;53.508;10.476;2023-03-31T09:08:30;5.88;;;2.55;;
75542;SDS011;64129;53.508;10.476;2023-03-31T09:19:35;6.55;;;2.75;;
75542;SDS011;64129;53.508;10.476;2023-03-31T09:22:11;5.72;;;2.55;;
75542;SDS011;64129;53.508;10.476;2023-03-31T09:24:46;5.55;;;2.20;;
75542;SDS011;64129;53.508;10.476;2023-03-31T09:27:18;5.32;;;2.72;;
75542;SDS011;64129;53.508;10.476;2023-03-31T09:32:24;5.10;;;3.45;;
75542;SDS011;64129;53.508;10.476;2023-03-31T09:34:55;5.10;;;2.85;;
75542;SDS011;64129;53.508;10.476;2023-03-31T09:37:29;6.15;;;2.50;;
75542;SDS011;64129;53.508;10.476;2023-03-31T09:40:02;4.80;;;2.53;;
75542;SDS011;64129;53.508;10.476;2023-03-31T09:42:36;3.85;;;3.08;;
75542;SDS011;64129;53.508;10.476;2023-03-31T09:45:04;7.15;;;2.97;;
75542;SDS011;64129;53.508;10.476;2023-03-31T09:47:31;6.80;;;2.85;;
75542;SDS011;64129;53.508;10.476;2023-03-31T09:50:08;3.67;;;2.75;;
75542;SDS011;64129;53.508;10.476;2023-03-31T09:52:40;5.22;;;3.78;;
75542;SDS011;64129;53.508;10.476;2023-03-31T09:57:53;6.60;;;2.20;;
75542;SDS011;64129;53.508;10.476;2023-03-31T10:00:21;4.53;;;2.65;;
75542;SDS011;64129;53.508;10.476;2023-03-31T10:05:33;4.40;;;2.80;;
75542;SDS011;64129;53.508;10.476;2023-03-31T10:08:13;4.63;;;2.72;;
75542;SDS011;64129;53.508;10.476;2023-03-31T10:10:53;3.75;;;2.28;;
75542;SDS011;64129;53.508;10.476;2023-03-31T10:13:34;6.70;;;3.00;;
75542;SDS011;64129;53.508;10.476;2023-03-31T10:16:11;6.20;;;2.83;;
75542;SDS011;64129;53.508;10.476;2023-03-31T10:18:41;5.18;;;2.63;;
75542;SDS011;64129;53.508;10.476;2023-03-31T10:21:16;4.05;;;2.22;;
75542;SDS011;64129;53.508;10.476;2023-03-31T10:23:46;7.07;;;2.70;;
75542;SDS011;64129;53.508;10.476;2023-03-31T10:26:16;4.57;;;2.30;;
75542;SDS011;64129;53.508;10.476;2023-03-31T10:28:46;3.35;;;2.03;;
75542;SDS011;64129;53.508;10.476;2023-03-31T10:31:33;3.97;;;1.98;;
75542;SDS011;64129;53.508;10.476;2023-03-31T10:34:08;4.55;;;2.22;;
75542;SDS011;64129;53.508;10.476;2023-03-31T10:36:45;4.60;;;2.05;;
75542;SDS011;64129;53.508;10.476;2023-03-31T10:39:14;4.05;;;1.73;;
75542;SDS011;64129;53.508;10.476;2023-03-31T10:41:42;2.38;;;2.05;;
75542;SDS011;64129;53.508;10.476;2023-03-31T10:44:29;2.13;;;1.45;;
75542;SDS011;64129;53.508;10.476;2023-03-31T10:47:04;2.45;;;2.10;;
75542;SDS011;64129;53.508;10.476;2023-03-31T10:49:40;3.33;;;1.77;;
75542;SDS011;64129;53.508;10.476;2023-03-31T10:52:42;2.90;;;1.90;;
75542;SDS011;64129;53.508;10.476;2023-03-31T10:55:11;2.33;;;1.65;;
75542;SDS011;64129;53.508;10.476;2023-03-31T11:03:10;4.13;;;1.73;;
75542;SDS011;64129;53.508;10.476;2023-03-31T11:11:15;3.50;;;2.03;;
75542;SDS011;64129;53.508;10.476;2023-03-31T11:17:17;3.38;;;2.30;;
75542;SDS011;64129;53.508;10.476;2023-03-31T11:19:56;3.58;;;2.22;;
75542;SDS011;64129;53.508;10.476;2023-03-31T11:25:19;3.22;;;2.22;;
75542;SDS011;64129;53.508;10.476;2023-03-31T11:28:00;6.25;;;2.42;;
75542;SDS011;64129;53.508;10.476;2023-03-31T11:30:52;3.97;;;2.10;;
75542;SDS011;64129;53.508;10.476;2023-03-31T11:41:58;4.32;;;2.13;;
75542;SDS011;64129;53.508;10.476;2023-03-31T11:44:29;2.92;;;1.92;;
75542;SDS011;64129;53.508;10.476;2023-03-31T11:47:07;4.72;;;2.33;;
75542;SDS011;64129;53.508;10.476;2023-03-31T11:49:40;2.58;;;1.85;;
75542;SDS011;64129;53.508;10.476;2023-03-31T11:52:15;4.78;;;2.00;;
75542;SDS011;64129;53.508;10.476;2023-03-31T12:03:02;3.92;;;2.10;;
75542;SDS011;64129;53.508;10.476;2023-03-31T12:05:33;3.85;;;2.10;;
75542;SDS011;64129;53.508;10.476;2023-03-31T12:08:13;4.53;;;1.95;;
75542;SDS011;64129;53.508;10.476;2023-03-31T12:10:45;4.40;;;1.98;;
75542;SDS011;64129;53.508;10.476;2023-03-31T12:13:33;2.22;;;1.52;;
75542;SDS011;64129;53.508;10.476;2023-03-31T12:16:21;1.67;;;1.40;;
75542;SDS011;64129;53.508;10.476;2023-03-31T12:18:56;2.63;;;1.13;;
75542;SDS011;64129;53.508;10.476;2023-03-31T12:23:54;4.45;;;1.77;;
75542;SDS011;64129;53.508;10.476;2023-03-31T12:26:33;4.03;;;1.30;;
75542;SDS011;64129;53.508;10.476;2023-03-31T12:29:15;3.38;;;1.50;;
75542;SDS011;64129;53.508;10.476;2023-03-31T12:31:53;5.05;;;1.60;;
75542;SDS011;64129;53.508;10.476;2023-03-31T12:34:22;4.18;;;2.13;;
75542;SDS011;64129;53.508;10.476;2023-03-31T12:36:57;2.40;;;1.40;;
75542;SDS011;64129;53.508;10.476;2023-03-31T12:47:33;3.22;;;1.30;;
75542;SDS011;64129;53.508;10.476;2023-03-31T12:50:12;3.03;;;1.45;;
75542;SDS011;64129;53.508;10.476;2023-03-31T12:53:01;2.67;;;1.80;;
75542;SDS011;64129;53.508;10.476;2023-03-31T12:55:48;2.00;;;1.60;;
75542;SDS011;64129;53.508;10.476;2023-03-31T13:01:10;3.30;;;1.83;;
75542;SDS011;64129;53.508;10.476;2023-03-31T13:03:39;3.05;;;2.00;;
75542;SDS011;64129;53.508;10.476;2023-03-31T13:06:50;3.13;;;1.80;;
75542;SDS011;64129;53.508;10.476;2023-03-31T13:09:00;4.07;;;1.95;;
75542;SDS011;64129;53.508;10.476;2023-03-31T13:13:59;4.68;;;2.10;;
75542;SDS011;64129;53.508;10.476;2023-03-31T13:16:28;3.05;;;2.20;;
75542;SDS011;64129;53.508;10.476;2023-03-31T13:18:56;2.78;;;2.00;;
75542;SDS011;64129;53.508;10.476;2023-03-31T13:21:23;2.58;;;2.20;;
75542;SDS011;64129;53.508;10.476;2023-03-31T13:23:50;4.43;;;2.30;;
75542;SDS011;64129;53.508;10.476;2023-03-31T13:34:27;3.92;;;2.20;;
75542;SDS011;64129;53.508;10.476;2023-03-31T13:40:21;4.38;;;2.00;;
75542;SDS011;64129;53.508;10.476;2023-03-31T13:43:18;3.78;;;2.28;;
75542;SDS011;64129;53.508;10.476;2023-03-31T13:49:09;2.65;;;1.73;;
75542;SDS011;64129;53.508;10.476;2023-03-31T13:52:03;2.85;;;2.05;;
75542;SDS011;64129;53.508;10.476;2023-03-31T14:06:23;4.07;;;2.28;;
75542;SDS011;64129;53.508;10.476;2023-03-31T14:09:41;5.18;;;2.40;;
75542;SDS011;64129;53.508;10.476;2023-03-31T14:11:54;3.50;;;2.00;;
75542;SDS011;64129;53.508;10.476;2023-03-31T14:14:23;3.03;;;2.00;;
75542;SDS011;64129;53.508;10.476;2023-03-31T14:16:51;3.38;;;2.25;;
75542;SDS011;64129;53.508;10.476;2023-03-31T14:19:35;2.40;;;2.17;;
75542;SDS011;64129;53.508;10.476;2023-03-31T14:33:55;1.45;;;1.17;;
75542;SDS011;64129;53.508;10.476;2023-03-31T14:39:19;3.13;;;1.63;;
75542;SDS011;64129;53.508;10.476;2023-03-31T14:41:51;3.17;;;1.45;;
75542;SDS011;64129;53.508;10.476;2023-03-31T14:44:19;2.05;;;1.60;;
75542;SDS011;64129;53.508;10.476;2023-03-31T14:46:47;2.58;;;1.60;;
75542;SDS011;64129;53.508;10.476;2023-03-31T14:51:52;1.73;;;1.40;;
75542;SDS011;64129;53.508;10.476;2023-03-31T14:54:21;1.42;;;1.33;;
75542;SDS011;64129;53.508;10.476;2023-03-31T14:56:49;1.92;;;1.40;;
75542;SDS011;64129;53.508;10.476;2023-03-31T14:59:20;2.38;;;1.73;;
75542;SDS011;64129;53.508;10.476;2023-03-31T15:01:50;1.85;;;1.65;;
75542;SDS011;64129;53.508;10.476;2023-03-31T15:04:18;2.15;;;1.65;;
75542;SDS011;64129;53.508;10.476;2023-03-31T15:09:22;2.33;;;1.83;;
75542;SDS011;64129;53.508;10.476;2023-03-31T15:11:53;2.78;;;1.42;;
75542;SDS011;64129;53.508;10.476;2023-03-31T15:14:26;1.92;;;1.50;;
75542;SDS011;64129;53.508;10.476;2023-03-31T15:16:59;4.07;;;1.63;;
75542;SDS011;64129;53.508;10.476;2023-03-31T15:19:27;1.90;;;1.77;;
75542;SDS011;64129;53.508;10.476;2023-03-31T15:24:43;2.00;;;1.80;;
75542;SDS011;64129;53.508;10.476;2023-03-31T15:27:13;2.33;;;1.70;;
75542;SDS011;64129;53.508;10.476;2023-03-31T15:30:06;1.83;;;1.70;;
75542;SDS011;64129;53.508;10.476;2023-03-31T15:32:34;1.80;;;1.48;;
75542;SDS011;64129;53.508;10.476;2023-03-31T15:35:03;1.75;;;1.35;;
75542;SDS011;64129;53.508;10.476;2023-03-31T15:37:37;1.50;;;1.13;;
75542;SDS011;64129;53.508;10.476;2023-03-31T15:40:17;1.98;;;1.50;;
75542;SDS011;64129;53.508;10.476;2023-03-31T15:42:48;1.48;;;1.20;;
75542;SDS011;64129;53.508;10.476;2023-03-31T15:45:34;1.95;;;1.35;;
75542;SDS011;64129;53.508;10.476;2023-03-31T15:48:04;1.80;;;1.40;;
75542;SDS011;64129;53.508;10.476;2023-03-31T15:50:31;1.55;;;1.40;;
75542;SDS011;64129;53.508;10.476;2023-03-31T15:52:59;1.52;;;1.40;;
75542;SDS011;64129;53.508;10.476;2023-03-31T15:55:38;1.80;;;1.05;;
75542;SDS011;64129;53.508;10.476;2023-03-31T15:58:08;2.10;;;1.42;;
75542;SDS011;64129;53.508;10.476;2023-03-31T16:03:18;1.83;;;1.17;;
75542;SDS011;64129;53.508;10.476;2023-03-31T16:05:53;1.55;;;1.13;;
75542;SDS011;64129;53.508;10.476;2023-03-31T16:10:56;2.85;;;1.30;;
75542;SDS011;64129;53.508;10.476;2023-03-31T16:13:27;2.97;;;1.50;;
75542;SDS011;64129;53.508;10.476;2023-03-31T16:15:57;1.98;;;1.42;;
75542;SDS011;64129;53.508;10.476;2023-03-31T16:18:32;1.45;;;1.35;;
75542;SDS011;64129;53.508;10.476;2023-03-31T16:21:03;1.52;;;1.30;;
75542;SDS011;64129;53.508;10.476;2023-03-31T16:23:33;2.30;;;1.20;;
75542;SDS011;64129;53.508;10.476;2023-03-31T16:26:03;1.75;;;1.50;;
75542;SDS011;64129;53.508;10.476;2023-03-31T16:28:35;1.83;;;1.55;;
75542;SDS011;64129;53.508;10.476;2023-03-31T16:31:03;2.17;;;1.35;;
75542;SDS011;64129;53.508;10.476;2023-03-31T16:36:17;2.05;;;1.38;;
75542;SDS011;64129;53.508;10.476;2023-03-31T16:38:43;3.15;;;1.30;;
75542;SDS011;64129;53.508;10.476;2023-03-31T16:41:10;2.00;;;1.30;;
75542;SDS011;64129;53.508;10.476;2023-03-31T16:43:36;1.20;;;1.10;;
75542;SDS011;64129;53.508;10.476;2023-03-31T16:46:03;1.90;;;1.38;;
75542;SDS011;64129;53.508;10.476;2023-03-31T16:48:30;1.83;;;1.38;;
75542;SDS011;64129;53.508;10.476;2023-03-31T16:51:00;1.90;;;1.30;;
75542;SDS011;64129;53.508;10.476;2023-03-31T16:53:30;2.45;;;1.30;;
75542;SDS011;64129;53.508;10.476;2023-03-31T16:56:02;3.38;;;2.28;;
75542;SDS011;64129;53.508;10.476;2023-03-31T16:58:33;2.42;;;1.83;;
75542;SDS011;64129;53.508;10.476;2023-03-31T17:01:01;3.13;;;1.42;;
75542;SDS011;64129;53.508;10.476;2023-03-31T17:03:28;2.17;;;1.58;;
75542;SDS011;64129;53.508;10.476;2023-03-31T17:05:55;2.22;;;1.50;;
75542;SDS011;64129;53.508;10.476;2023-03-31T17:08:25;2.20;;;1.42;;
75542;SDS011;64129;53.508;10.476;2023-03-31T17:11:00;2.28;;;1.45;;
75542;SDS011;64129;53.508;10.476;2023-03-31T17:13:29;2.10;;;1.15;;
75542;SDS011;64129;53.508;10.476;2023-03-31T17:15:57;3.35;;;1.30;;
75542;SDS011;64129;53.508;10.476;2023-03-31T17:18:34;2.10;;;1.15;;
75542;SDS011;64129;53.508;10.476;2023-03-31T17:21:04;3.08;;;1.40;;
75542;SDS011;64129;53.508;10.476;2023-03-31T17:23:33;3.00;;;2.63;;
75542;SDS011;64129;53.508;10.476;2023-03-31T17:26:00;2.63;;;1.42;;
75542;SDS011;64129;53.508;10.476;2023-03-31T17:28:27;3.05;;;1.98;;
75542;SDS011;64129;53.508;10.476;2023-03-31T17:30:53;4.05;;;1.70;;
75542;SDS011;64129;53.508;10.476;2023-03-31T17:33:20;2.40;;;1.60;;
75542;SDS011;64129;53.508;10.476;2023-03-31T17:35:47;2.40;;;1.33;;
75542;SDS011;64129;53.508;10.476;2023-03-31T17:38:15;2.90;;;1.75;;
75542;SDS011;64129;53.508;10.476;2023-03-31T17:40:44;3.20;;;1.88;;
75542;SDS011;64129;53.508;10.476;2023-03-31T17:43:12;4.07;;;2.22;;
75542;SDS011;64129;53.508;10.476;2023-03-31T17:45:39;3.30;;;2.38;;
75542;SDS011;64129;53.508;10.476;2023-03-31T17:48:06;3.55;;;1.90;;
75542;SDS011;64129;53.508;10.476;2023-03-31T17:50:35;2.50;;;1.90;;
75542;SDS011;64129;53.508;10.476;2023-03-31T17:53:02;4.05;;;2.45;;